createdAt,value
2018-06-20T00:00:21.264Z,6.17
2018-06-20T00:02:49.913Z,5.93
2018-06-20T00:05:18.321Z,6.00
2018-06-20T00:07:47.048Z,6.20
2018-06-20T00:10:15.836Z,5.97
2018-06-20T00:12:44.383Z,7.07
2018-06-20T00:15:13.148Z,6.47
2018-06-20T00:17:42.205Z,6.63
2018-06-20T00:20:10.828Z,6.20
2018-06-20T00:22:39.467Z,6.43
2018-06-20T00:25:08.202Z,6.33
2018-06-20T00:27:37.197Z,6.43
2018-06-20T00:30:05.897Z,6.40
2018-06-20T00:32:34.598Z,6.50
2018-06-20T00:35:03.253Z,6.20
2018-06-20T00:37:32.381Z,6.00
2018-06-20T00:40:00.913Z,6.67
2018-06-20T00:42:29.508Z,6.67
2018-06-20T00:44:57.980Z,6.40
2018-06-20T00:47:26.580Z,6.20
2018-06-20T00:49:55.264Z,6.37
2018-06-20T00:52:24.008Z,6.53
2018-06-20T00:54:53.124Z,6.60
2018-06-20T00:57:21.679Z,6.60
2018-06-20T00:59:50.469Z,6.43
2018-06-20T01:02:19.216Z,6.50
2018-06-20T01:04:47.856Z,6.40
2018-06-20T01:07:16.577Z,6.17
2018-06-20T01:09:45.420Z,6.77
2018-06-20T01:12:14.104Z,6.57
2018-06-20T01:14:43.056Z,6.77
2018-06-20T01:17:11.474Z,6.93
2018-06-20T01:19:40.144Z,6.20
2018-06-20T01:22:09.240Z,6.87
2018-06-20T01:24:37.804Z,6.50
2018-06-20T01:27:06.263Z,6.23
2018-06-20T01:29:35.228Z,6.20
2018-06-20T01:32:03.896Z,6.43
2018-06-20T01:34:32.959Z,6.77
2018-06-20T01:37:01.825Z,6.43
2018-06-20T01:39:30.563Z,7.20
2018-06-20T01:41:59.695Z,6.77
2018-06-20T01:44:28.532Z,6.83
2018-06-20T01:46:57.081Z,6.30
2018-06-20T01:49:25.865Z,6.47
2018-06-20T01:51:54.272Z,6.87
2018-06-20T01:54:22.692Z,7.10
2018-06-20T01:56:51.526Z,6.97
2018-06-20T01:59:20.418Z,6.90
2018-06-20T02:01:49.636Z,6.47
2018-06-20T02:04:18.179Z,6.90
2018-06-20T02:06:46.869Z,6.80
2018-06-20T02:09:15.713Z,6.60
2018-06-20T02:11:44.304Z,7.00
2018-06-20T02:14:12.881Z,7.00
2018-06-20T02:16:41.781Z,6.97
2018-06-20T02:19:10.521Z,6.90
2018-06-20T02:21:40.077Z,6.70
2018-06-20T02:24:08.740Z,6.70
2018-06-20T02:26:37.796Z,6.83
2018-06-20T02:29:06.457Z,7.30
2018-06-20T02:31:35.460Z,7.00
2018-06-20T02:34:04.248Z,6.70
2018-06-20T02:36:33.739Z,6.93
2018-06-20T02:39:05.471Z,7.03
2018-06-20T02:41:34.115Z,6.63
2018-06-20T02:44:02.689Z,7.17
2018-06-20T02:46:31.354Z,7.13
2018-06-20T02:49:01.570Z,7.07
2018-06-20T02:51:30.726Z,7.37
2018-06-20T02:53:59.845Z,6.53
2018-06-20T02:56:28.460Z,6.50
2018-06-20T02:58:57.217Z,7.20
2018-06-20T03:01:26.422Z,6.97
2018-06-20T03:03:55.160Z,7.13
2018-06-20T03:06:24.403Z,7.03
2018-06-20T03:08:58.333Z,6.40
2018-06-20T03:11:27.397Z,6.70
2018-06-20T03:13:56.168Z,6.70
2018-06-20T03:16:24.709Z,6.33
2018-06-20T03:18:53.621Z,5.90
2018-06-20T03:21:22.204Z,6.90
2018-06-20T03:23:50.788Z,6.57
2018-06-20T03:26:19.837Z,6.73
2018-06-20T03:28:48.452Z,6.97
2018-06-20T03:31:17.216Z,5.90
2018-06-20T03:33:45.815Z,6.40
2018-06-20T03:36:14.560Z,6.50
2018-06-20T03:38:43.459Z,6.80
2018-06-20T03:41:12.213Z,6.70
2018-06-20T03:43:41.029Z,6.60
2018-06-20T03:46:09.664Z,6.77
2018-06-20T03:48:38.572Z,6.70
2018-06-20T03:51:07.297Z,6.40
2018-06-20T03:53:36.248Z,5.90
2018-06-20T03:56:05.216Z,6.03
2018-06-20T03:58:34.001Z,6.90
2018-06-20T04:01:02.688Z,6.30
2018-06-20T04:03:31.604Z,6.67
2018-06-20T04:06:00.288Z,6.00
2018-06-20T04:08:29.033Z,5.80
2018-06-20T04:10:57.656Z,5.93
2018-06-20T04:13:26.428Z,5.93
2018-06-20T04:15:55.080Z,6.40
2018-06-20T04:18:27.986Z,6.13
2018-06-20T04:20:56.381Z,5.93
2018-06-20T04:23:25.093Z,5.70
2018-06-20T04:25:54.064Z,5.43
2018-06-20T04:28:22.916Z,5.53
2018-06-20T04:30:51.281Z,6.10
2018-06-20T04:33:20.752Z,5.87
2018-06-20T04:35:49.660Z,5.57
2018-06-20T04:38:18.149Z,5.60
2018-06-20T04:40:46.629Z,5.83
2018-06-20T04:43:15.197Z,5.63
2018-06-20T04:45:43.568Z,5.23
2018-06-20T04:48:11.912Z,5.20
2018-06-20T04:50:40.401Z,5.30
2018-06-20T04:53:09.148Z,4.90
2018-06-20T04:55:37.709Z,5.43
2018-06-20T04:58:06.320Z,5.27
2018-06-20T05:00:34.888Z,5.37
2018-06-20T05:03:03.481Z,4.70
2018-06-20T05:05:32.165Z,5.33
2018-06-20T05:08:01.140Z,5.10
2018-06-20T05:10:30.270Z,4.83
2018-06-20T05:12:59.256Z,4.80
2018-06-20T05:15:27.892Z,4.90
2018-06-20T05:17:56.485Z,5.13
2018-06-20T05:20:25.109Z,5.10
2018-06-20T05:22:53.648Z,4.80
2018-06-20T05:25:22.604Z,4.57
2018-06-20T05:27:51.304Z,4.80
2018-06-20T05:30:19.907Z,4.73
2018-06-20T05:32:48.421Z,4.47
2018-06-20T05:35:16.992Z,4.90
2018-06-20T05:37:45.764Z,4.37
2018-06-20T05:40:14.963Z,5.13
2018-06-20T05:42:43.309Z,5.23
2018-06-20T05:45:12.136Z,4.87
2018-06-20T05:47:40.824Z,4.47
2018-06-20T05:50:09.520Z,4.40
2018-06-20T05:52:38.168Z,3.73
2018-06-20T05:55:06.941Z,3.80
2018-06-20T05:57:35.451Z,3.70
2018-06-20T06:00:04.249Z,4.67
2018-06-20T06:02:33.093Z,4.10
2018-06-20T06:05:01.443Z,4.20
2018-06-20T06:07:30.005Z,3.90
2018-06-20T06:09:58.689Z,4.57
2018-06-20T06:12:27.656Z,4.20
2018-06-20T06:14:56.788Z,4.13
2018-06-20T06:17:25.365Z,3.80
2018-06-20T06:19:54.090Z,4.13
2018-06-20T06:22:22.993Z,3.90
2018-06-20T06:24:51.912Z,4.00
2018-06-20T06:27:20.596Z,3.73
2018-06-20T06:29:49.350Z,4.20
2018-06-20T06:32:18.260Z,3.97
2018-06-20T06:34:46.690Z,4.13
2018-06-20T06:37:16.078Z,4.30
2018-06-20T06:39:44.406Z,3.70
2018-06-20T06:42:12.712Z,4.23
2018-06-20T06:44:41.218Z,3.73
2018-06-20T06:47:09.504Z,3.80
2018-06-20T06:49:37.896Z,3.50
2018-06-20T06:52:06.252Z,3.30
2018-06-20T06:54:34.771Z,3.63
2018-06-20T06:57:03.081Z,3.77
2018-06-20T06:59:31.423Z,3.90
2018-06-20T07:01:59.768Z,4.10
2018-06-20T07:04:28.105Z,3.57
2018-06-20T07:06:56.853Z,3.77
2018-06-20T07:09:25.180Z,3.57
2018-06-20T07:11:53.574Z,3.83
2018-06-20T07:14:22.220Z,3.33
2018-06-20T07:16:50.553Z,3.50
2018-06-20T07:19:18.880Z,3.30
2018-06-20T07:21:47.360Z,3.30
2018-06-20T07:24:15.922Z,3.30
2018-06-20T07:26:44.476Z,3.60
2018-06-20T07:29:13.858Z,3.50
2018-06-20T07:31:42.220Z,3.20
2018-06-20T07:34:10.629Z,3.47
2018-06-20T07:36:39.321Z,3.30
2018-06-20T07:39:08.912Z,3.10
2018-06-20T07:41:38.206Z,3.10
2018-06-20T07:44:08.182Z,3.30
2018-06-20T07:46:37.885Z,3.40
2018-06-20T07:49:06.431Z,3.37
2018-06-20T07:51:35.970Z,3.57
2018-06-20T07:54:05.076Z,3.17
2018-06-20T07:56:34.013Z,3.43
2018-06-20T07:59:02.720Z,3.57
2018-06-20T08:01:41.814Z,3.30
2018-06-20T08:04:15.812Z,3.57
2018-06-20T08:06:50.140Z,3.57
2018-06-20T08:09:24.377Z,3.30
2018-06-20T08:11:58.066Z,3.47
2018-06-20T08:14:32.009Z,3.73
2018-06-20T08:17:04.330Z,3.77
2018-06-20T08:19:38.410Z,3.77
2018-06-20T08:22:07.012Z,3.50
2018-06-20T08:24:36.238Z,3.43
2018-06-20T08:27:05.085Z,2.90
2018-06-20T08:29:33.681Z,3.33
2018-06-20T08:32:02.341Z,3.20
2018-06-20T08:34:31.026Z,3.40
2018-06-20T08:36:59.754Z,3.27
2018-06-20T08:39:28.939Z,3.13
2018-06-20T08:41:57.677Z,3.03
2018-06-20T08:44:26.483Z,3.37
2018-06-20T08:46:55.650Z,3.10
2018-06-20T08:49:24.362Z,3.50
2018-06-20T08:51:53.096Z,3.10
2018-06-20T08:54:22.024Z,3.10
2018-06-20T08:56:50.698Z,2.90
2018-06-20T08:59:19.495Z,2.83
2018-06-20T09:01:48.078Z,3.10
2018-06-20T09:04:21.988Z,3.00
2018-06-20T09:06:56.052Z,2.90
2018-06-20T09:09:29.825Z,3.00
2018-06-20T09:12:03.743Z,2.67
2018-06-20T09:14:36.684Z,3.07
2018-06-20T09:19:13.137Z,2.70
2018-06-20T09:21:42.250Z,3.13
2018-06-20T09:24:10.847Z,3.10
2018-06-20T09:26:39.578Z,2.67
2018-06-20T09:29:08.287Z,2.90
2018-06-20T09:31:36.960Z,2.90
2018-06-20T09:34:05.705Z,3.07
2018-06-20T09:36:34.330Z,3.07
2018-06-20T09:39:03.500Z,3.00
2018-06-20T09:41:32.596Z,2.80
2018-06-20T09:44:01.612Z,2.90
2018-06-20T09:46:30.376Z,2.90
2018-06-20T09:48:59.306Z,3.27
2018-06-20T09:51:28.289Z,3.40
2018-06-20T09:53:57.357Z,3.40
2018-06-20T09:56:26.091Z,3.13
2018-06-20T09:58:55.013Z,3.03
2018-06-20T10:01:29.075Z,3.15
2018-06-20T10:04:02.822Z,2.97
2018-06-20T10:13:16.805Z,3.60
2018-06-20T10:15:45.236Z,3.20
2018-06-20T10:18:14.175Z,3.33
2018-06-20T10:20:42.528Z,2.97
2018-06-20T10:23:11.251Z,3.03
2018-06-20T10:25:39.616Z,2.93
2018-06-20T10:28:08.326Z,2.80
2018-06-20T10:30:36.756Z,2.80
2018-06-20T10:33:05.403Z,3.23
2018-06-20T10:35:33.772Z,2.90
2018-06-20T10:38:02.294Z,2.90
2018-06-20T10:40:31.464Z,3.20
2018-06-20T10:43:00.231Z,2.83
2018-06-20T10:45:33.828Z,2.80
2018-06-20T10:48:06.987Z,3.37
2018-06-20T10:50:35.776Z,3.00
2018-06-20T10:53:04.640Z,3.50
2018-06-20T10:55:33.801Z,3.17
2018-06-20T10:58:07.525Z,2.55
2018-06-20T11:00:41.338Z,2.90
2018-06-20T11:03:15.033Z,3.33
2018-06-20T11:05:48.756Z,3.10
2018-06-20T11:08:22.344Z,2.80
2018-06-20T11:10:56.203Z,3.30
2018-06-20T11:13:24.674Z,2.93
2018-06-20T11:15:53.604Z,3.57
2018-06-20T11:18:22.903Z,3.20
2018-06-20T11:20:56.412Z,3.10
2018-06-20T11:23:25.233Z,3.70
2018-06-20T11:25:54.220Z,3.07
2018-06-20T11:28:23.050Z,3.03
2018-06-20T11:30:51.573Z,3.30
2018-06-20T11:33:20.488Z,2.93
2018-06-20T11:35:49.298Z,2.60
2018-06-20T11:38:17.977Z,3.13
2018-06-20T11:40:46.652Z,3.13
2018-06-20T11:43:15.032Z,3.13
2018-06-20T11:45:49.260Z,3.10
2018-06-20T11:48:18.232Z,2.80
2018-06-20T11:50:47.243Z,3.37
2018-06-20T11:53:16.276Z,3.20
2018-06-20T11:55:45.914Z,3.30
2018-06-20T12:00:23.917Z,3.17
2018-06-20T12:03:57.916Z,2.95
2018-06-20T12:06:31.563Z,3.03
2018-06-20T12:09:05.558Z,3.17
2018-06-20T12:11:39.136Z,2.97
2018-06-20T12:14:13.223Z,2.80
2018-06-20T12:16:45.976Z,3.20
2018-06-20T12:19:20.055Z,2.80
2018-06-20T12:21:53.898Z,3.10
2018-06-20T12:24:27.838Z,3.30
2018-06-20T12:27:01.471Z,2.80
2018-06-20T12:29:35.392Z,3.07
2018-06-20T12:32:09.082Z,3.07
2018-06-20T12:34:43.020Z,3.00
2018-06-20T12:37:16.720Z,2.60
2018-06-20T12:39:49.672Z,3.00
2018-06-20T12:42:23.541Z,3.03
2018-06-20T12:44:57.165Z,3.33
2018-06-20T12:47:58.580Z,3.00
2018-06-20T12:50:27.984Z,2.95
2018-06-20T12:52:57.298Z,3.40
2018-06-20T12:55:26.562Z,3.30
2018-06-20T12:57:55.902Z,3.37
2018-06-20T13:00:24.928Z,3.40
2018-06-20T13:02:53.877Z,3.13
2018-06-20T13:05:22.273Z,3.20
2018-06-20T13:07:50.615Z,3.40
2018-06-20T13:10:19.664Z,3.30
2018-06-20T13:12:48.666Z,3.20
2018-06-20T13:15:17.365Z,3.40
2018-06-20T13:17:45.819Z,3.23
2018-06-20T13:20:14.432Z,3.00
2018-06-20T13:22:43.381Z,2.93
2018-06-20T13:25:12.148Z,3.30
2018-06-20T13:27:46.332Z,3.40
2018-06-20T13:30:15.315Z,3.30
2018-06-20T13:32:49.385Z,3.43
2018-06-20T13:35:23.448Z,3.33
2018-06-20T13:37:57.475Z,3.30
2018-06-20T13:40:31.351Z,3.17
2018-06-20T13:43:05.141Z,2.87
2018-06-20T13:45:39.081Z,3.57
2018-06-20T13:48:13.037Z,3.57
2018-06-20T13:50:41.924Z,3.30
2018-06-20T13:53:10.357Z,3.73
2018-06-20T13:55:38.703Z,3.30
2018-06-20T13:58:11.703Z,3.43
2018-06-20T14:00:40.372Z,3.60
2018-06-20T14:03:08.859Z,3.12
2018-06-20T14:05:37.456Z,3.40
2018-06-20T14:08:06.233Z,3.37
2018-06-20T14:10:34.801Z,3.37
2018-06-20T14:13:03.195Z,3.22
2018-06-20T14:15:31.600Z,3.50
2018-06-20T14:17:59.984Z,3.60
2018-06-20T14:20:33.713Z,3.17
2018-06-20T14:23:02.446Z,3.73
2018-06-20T14:25:31.877Z,3.20
2018-06-20T14:28:01.153Z,3.33
2018-06-20T14:30:35.329Z,3.65
2018-06-20T14:33:09.042Z,3.43
2018-06-20T14:35:42.685Z,3.30
2018-06-20T14:38:16.484Z,3.77
2018-06-20T14:40:50.346Z,3.30
2018-06-20T14:44:27.612Z,3.60
2018-06-20T14:46:56.406Z,3.50
2018-06-20T14:49:25.544Z,3.67
2018-06-20T14:51:54.252Z,3.40
2018-06-20T14:54:23.008Z,3.33
2018-06-20T14:56:51.727Z,3.40
2018-06-20T14:59:20.417Z,4.10
2018-06-20T15:01:48.806Z,3.40
2018-06-20T15:04:17.382Z,3.10
2018-06-20T15:06:45.829Z,2.97
2018-06-20T15:09:14.190Z,3.67
2018-06-20T15:11:42.974Z,3.40
2018-06-20T15:14:11.680Z,3.30
2018-06-20T15:16:45.314Z,3.80
2018-06-20T15:19:13.904Z,3.53
2018-06-20T15:21:42.931Z,3.43
2018-06-20T15:24:11.888Z,4.33
2018-06-20T15:26:46.029Z,8.47
2018-06-20T15:29:19.583Z,4.57
2018-06-20T15:31:53.285Z,3.97
2018-06-20T15:36:32.246Z,4.10
2018-06-20T15:39:00.606Z,4.87
2018-06-20T15:41:29.323Z,5.10
2018-06-20T15:43:57.794Z,4.43
2018-06-20T15:46:26.591Z,4.50
2018-06-20T15:48:55.360Z,4.30
2018-06-20T15:51:23.736Z,4.43
2018-06-20T15:53:52.088Z,4.37
2018-06-20T15:56:20.441Z,4.07
2018-06-20T15:58:49.138Z,4.27
2018-06-20T16:01:17.800Z,4.13
2018-06-20T16:03:46.480Z,4.07
2018-06-20T16:06:15.604Z,4.10
2018-06-20T16:08:49.306Z,4.07
2018-06-20T16:11:18.045Z,3.77
2018-06-20T16:13:47.376Z,3.73
2018-06-20T16:16:15.796Z,4.00
2018-06-20T16:18:50.009Z,4.17
2018-06-20T16:21:23.977Z,4.27
2018-06-20T16:23:57.760Z,4.27
2018-06-20T16:26:31.456Z,4.23
2018-06-20T16:29:05.022Z,4.37
2018-06-20T16:31:34.001Z,4.23
2018-06-20T16:34:02.461Z,4.23
2018-06-20T16:36:31.688Z,4.00
2018-06-20T16:39:00.156Z,4.03
2018-06-20T16:41:28.815Z,4.10
2018-06-20T16:43:57.161Z,3.77
2018-06-20T16:46:25.537Z,4.40
2018-06-20T16:48:53.937Z,3.80
2018-06-20T16:51:22.653Z,4.30
2018-06-20T16:53:51.101Z,3.87
2018-06-20T16:56:19.733Z,3.97
2018-06-20T16:58:48.097Z,4.00
2018-06-20T17:01:21.834Z,3.80
2018-06-20T17:03:50.293Z,4.10
2018-06-20T17:06:19.170Z,4.07
2018-06-20T17:08:47.730Z,4.70
2018-06-20T17:11:16.682Z,4.07
2018-06-20T17:13:50.734Z,3.93
2018-06-20T17:16:24.540Z,4.10
2018-06-20T17:18:58.095Z,3.93
2018-06-20T17:21:32.138Z,3.90
2018-06-20T17:24:05.828Z,3.63
2018-06-20T17:26:34.252Z,4.10
2018-06-20T17:29:02.660Z,3.70
2018-06-20T17:31:31.134Z,4.10
2018-06-20T17:34:00.043Z,3.73
2018-06-20T17:36:28.811Z,3.90
2018-06-20T17:38:57.136Z,3.63
2018-06-20T17:41:25.793Z,3.33
2018-06-20T17:43:54.501Z,3.70
2018-06-20T17:46:22.879Z,3.87
2018-06-20T17:48:51.597Z,3.80
2018-06-20T17:51:20.245Z,3.57
2018-06-20T17:53:48.569Z,3.60
2018-06-20T17:56:16.957Z,3.73
2018-06-20T17:58:45.958Z,3.77
2018-06-20T18:01:14.451Z,3.90
2018-06-20T18:03:43.324Z,3.83
2018-06-20T18:06:16.889Z,3.80
2018-06-20T18:08:50.804Z,3.50
2018-06-20T18:13:26.061Z,3.97
2018-06-20T18:15:59.721Z,3.80
2018-06-20T18:18:28.090Z,3.80
2018-06-20T18:20:56.896Z,3.60
2018-06-20T18:23:25.469Z,3.53
2018-06-20T18:25:54.179Z,4.00
2018-06-20T18:28:22.852Z,3.70
2018-06-20T18:30:51.360Z,3.80
2018-06-20T18:33:21.861Z,3.50
2018-06-20T18:35:51.024Z,3.70
2018-06-20T18:38:19.741Z,3.93
2018-06-20T18:40:48.144Z,4.00
2018-06-20T18:43:16.923Z,3.47
2018-06-20T18:45:45.548Z,3.97
2018-06-20T18:48:19.497Z,3.70
2018-06-20T18:50:47.842Z,3.77
2018-06-20T18:53:16.467Z,3.60
2018-06-20T18:55:44.838Z,3.73
2018-06-20T18:58:18.399Z,3.77
2018-06-20T19:00:51.909Z,3.53
2018-06-20T19:03:25.593Z,4.50
2018-06-20T19:05:59.356Z,4.00
2018-06-20T19:08:33.128Z,4.13
2018-06-20T19:17:45.920Z,4.27
2018-06-20T19:20:14.236Z,4.37
2018-06-20T19:22:43.845Z,4.10
2018-06-20T19:25:12.544Z,4.30
2018-06-20T19:27:41.461Z,3.93
2018-06-20T19:30:09.967Z,4.17
2018-06-20T19:32:38.966Z,3.87
2018-06-20T19:35:07.754Z,4.43
2018-06-20T19:37:36.545Z,4.57
2018-06-20T19:40:04.933Z,4.30
2018-06-20T19:42:33.300Z,4.43
2018-06-20T19:45:02.337Z,4.20
2018-06-20T19:47:30.672Z,4.53
2018-06-20T19:49:59.033Z,4.00
2018-06-20T19:52:27.949Z,4.43
2018-06-20T19:54:56.837Z,4.40
2018-06-20T19:57:26.038Z,4.57
2018-06-20T19:59:54.693Z,4.50
2018-06-20T20:02:23.174Z,4.10
2018-06-20T20:04:52.108Z,4.03
2018-06-20T20:07:20.500Z,4.33
2018-06-20T20:09:49.468Z,4.07
2018-06-20T20:12:17.950Z,4.33
2018-06-20T20:14:46.547Z,4.50
2018-06-20T20:17:15.375Z,4.30
2018-06-20T20:19:43.924Z,4.23
2018-06-20T20:22:12.596Z,4.13
2018-06-20T20:24:41.316Z,4.30
2018-06-20T20:27:10.052Z,4.43
2018-06-20T20:29:39.370Z,4.65
2018-06-20T20:32:08.261Z,4.40
2018-06-20T20:34:36.984Z,4.15
2018-06-20T20:37:05.888Z,4.70
2018-06-20T20:39:34.328Z,4.47
2018-06-20T20:42:03.053Z,4.50
2018-06-20T20:44:32.013Z,5.10
2018-06-20T20:47:00.388Z,4.13
2018-06-20T20:49:29.258Z,4.47
2018-06-20T20:51:57.768Z,4.13
2018-06-20T20:54:26.416Z,4.63
2018-06-20T20:56:55.296Z,4.33
2018-06-20T20:59:24.122Z,4.40
2018-06-20T21:01:53.101Z,4.47
2018-06-20T21:04:21.839Z,4.50
2018-06-20T21:06:50.523Z,4.40
2018-06-20T21:09:19.140Z,3.73
2018-06-20T21:11:47.844Z,4.73
2018-06-20T21:14:16.225Z,4.70
2018-06-20T21:16:44.626Z,3.90
2018-06-20T21:19:12.964Z,4.87
2018-06-20T21:21:41.668Z,4.67
2018-06-20T21:24:10.196Z,4.23
2018-06-20T21:26:39.060Z,4.60
2018-06-20T21:29:07.368Z,4.50
2018-06-20T21:31:35.802Z,4.37
2018-06-20T21:34:04.777Z,4.93
2018-06-20T21:36:33.201Z,4.40
2018-06-20T21:39:01.869Z,4.73
2018-06-20T21:41:30.504Z,4.83
2018-06-20T21:43:59.733Z,4.63
2018-06-20T21:46:28.460Z,4.67
2018-06-20T21:48:57.038Z,4.40
2018-06-20T21:51:25.632Z,4.87
2018-06-20T21:53:54.030Z,4.47
2018-06-20T21:56:22.714Z,5.20
2018-06-20T21:58:51.068Z,4.70
2018-06-20T22:01:19.765Z,5.10
2018-06-20T22:03:48.109Z,4.85
2018-06-20T22:06:16.821Z,4.93
2018-06-20T22:08:45.204Z,5.23
2018-06-20T22:11:13.507Z,5.33
2018-06-20T22:13:41.984Z,5.10
2018-06-20T22:16:10.368Z,4.93
2018-06-20T22:18:39.021Z,5.03
2018-06-20T22:21:07.696Z,4.93
2018-06-20T22:23:36.136Z,5.00
2018-06-20T22:26:04.509Z,4.93
2018-06-20T22:28:33.528Z,5.17
2018-06-20T22:31:02.020Z,4.60
2018-06-20T22:33:31.153Z,5.10
2018-06-20T22:35:59.532Z,5.27
2018-06-20T22:38:27.916Z,5.20
2018-06-20T22:40:56.261Z,5.23
2018-06-20T22:43:24.677Z,5.07
2018-06-20T22:45:53.080Z,5.67
2018-06-20T22:48:22.348Z,4.83
2018-06-20T22:50:50.732Z,5.10
2018-06-20T22:53:19.551Z,5.63
2018-06-20T22:55:47.879Z,5.20
2018-06-20T22:58:16.477Z,5.60
2018-06-20T23:00:45.474Z,5.60
2018-06-20T23:03:14.162Z,5.37
2018-06-20T23:05:42.898Z,5.13
2018-06-20T23:08:11.905Z,5.27
2018-06-20T23:10:40.421Z,5.57
2018-06-20T23:13:09.221Z,5.63
2018-06-20T23:15:38.188Z,5.13
2018-06-20T23:18:06.550Z,5.50
2018-06-20T23:20:35.280Z,5.67
2018-06-20T23:23:04.031Z,5.30
2018-06-20T23:25:32.440Z,5.53
2018-06-20T23:28:01.132Z,5.73
2018-06-20T23:30:29.618Z,5.77
2018-06-20T23:32:58.064Z,5.80
2018-06-20T23:35:26.824Z,5.43
2018-06-20T23:37:55.772Z,5.13
2018-06-20T23:40:24.149Z,5.27
2018-06-20T23:42:52.943Z,5.30
2018-06-20T23:45:22.125Z,5.53
2018-06-20T23:47:50.545Z,5.27
2018-06-20T23:50:19.312Z,5.60
2018-06-20T23:52:47.896Z,5.80
2018-06-20T23:55:16.559Z,5.30
2018-06-20T23:57:44.935Z,5.80
